Salt, Spain
Current Conditions -  °F | °C
As of 4:30 PM on Saturday 25 Oct 2014 (Local Time) from LEGE Reporting Station
Few Clouds Few Clouds  
Wind Chill: 77°   Ceiling: Unl
Heat Index: 79°   Visibility: 6mi
Dew Point: 57°   Wind: 5mph
Humidity: 50%   Direction: 180°S
Pressure: 30.06"   Gusts: NA
Location:  41.97°N, 2.79°E
Report Text: LEGE 251430Z 18004KT 140V220 9999 FEW040TCU 25/14 Q1018
Loading
Personal Weather Stations






























Interactive Weather Map
Tropical Storm Tracking
New forecast layout! Learn more

10-Day Weather Forecast

Advertisements
Track Severe Weather on mobile